sensor_id;sensor_type;location;lat;lon;timestamp;temperature;humidity
10249;DHT22;5169;50.560;9.714;2022-09-09T00:01:55;15.30;99.90
10249;DHT22;5169;50.560;9.714;2022-09-09T00:04:30;15.30;99.90
10249;DHT22;5169;50.560;9.714;2022-09-09T00:09:27;15.40;99.90
10249;DHT22;5169;50.560;9.714;2022-09-09T00:12:05;15.40;99.90
10249;DHT22;5169;50.560;9.714;2022-09-09T00:17:46;15.50;99.90
10249;DHT22;5169;50.560;9.714;2022-09-09T00:21:03;15.50;99.90
10249;DHT22;5169;50.560;9.714;2022-09-09T00:23:27;15.40;99.90
10249;DHT22;5169;50.560;9.714;2022-09-09T00:25:57;15.40;99.90
10249;DHT22;5169;50.560;9.714;2022-09-09T00:28:26;15.40;99.90
10249;DHT22;5169;50.560;9.714;2022-09-09T00:30:52;15.40;99.90
10249;DHT22;5169;50.560;9.714;2022-09-09T00:33:20;15.50;99.90
10249;DHT22;5169;50.560;9.714;2022-09-09T00:35:49;15.50;99.90
10249;DHT22;5169;50.560;9.714;2022-09-09T00:38:18;15.40;99.90
10249;DHT22;5169;50.560;9.714;2022-09-09T00:41:17;15.50;99.90
10249;DHT22;5169;50.560;9.714;2022-09-09T00:43:57;15.60;99.90
10249;DHT22;5169;50.560;9.714;2022-09-09T00:57:10;15.60;99.90
10249;DHT22;5169;50.560;9.714;2022-09-09T00:59:48;15.50;99.90
10249;DHT22;5169;50.560;9.714;2022-09-09T01:02:28;15.50;99.90
10249;DHT22;5169;50.560;9.714;2022-09-09T01:05:02;15.50;99.90
10249;DHT22;5169;50.560;9.714;2022-09-09T01:07:30;15.50;99.90
10249;DHT22;5169;50.560;9.714;2022-09-09T01:10:01;15.40;99.90
10249;DHT22;5169;50.560;9.714;2022-09-09T01:12:41;15.40;99.90
10249;DHT22;5169;50.560;9.714;2022-09-09T01:15:26;15.40;99.90
10249;DHT22;5169;50.560;9.714;2022-09-09T01:28:55;15.50;99.90
10249;DHT22;5169;50.560;9.714;2022-09-09T01:31:29;15.50;99.90
10249;DHT22;5169;50.560;9.714;2022-09-09T01:34:01;15.40;99.90
10249;DHT22;5169;50.560;9.714;2022-09-09T01:39:12;15.40;99.90
10249;DHT22;5169;50.560;9.714;2022-09-09T01:41:38;15.40;99.90
10249;DHT22;5169;50.560;9.714;2022-09-09T01:44:05;15.50;99.90
10249;DHT22;5169;50.560;9.714;2022-09-09T01:46:32;15.50;99.90
10249;DHT22;5169;50.560;9.714;2022-09-09T01:48:59;15.50;99.90
10249;DHT22;5169;50.560;9.714;2022-09-09T01:51:28;15.50;99.90
10249;DHT22;5169;50.560;9.714;2022-09-09T01:53:56;15.60;99.90
10249;DHT22;5169;50.560;9.714;2022-09-09T01:56:28;15.50;99.90
10249;DHT22;5169;50.560;9.714;2022-09-09T01:59:11;15.40;99.90
10249;DHT22;5169;50.560;9.714;2022-09-09T02:02:04;15.30;99.90
10249;DHT22;5169;50.560;9.714;2022-09-09T02:04:41;15.30;99.90
10249;DHT22;5169;50.560;9.714;2022-09-09T02:10:04;15.20;99.90
10249;DHT22;5169;50.560;9.714;2022-09-09T02:12:33;15.10;99.90
10249;DHT22;5169;50.560;9.714;2022-09-09T02:15:05;15.00;99.90
10249;DHT22;5169;50.560;9.714;2022-09-09T02:17:36;15.00;99.90
10249;DHT22;5169;50.560;9.714;2022-09-09T02:20:12;15.10;99.90
10249;DHT22;5169;50.560;9.714;2022-09-09T02:22:40;15.00;99.90
10249;DHT22;5169;50.560;9.714;2022-09-09T02:25:09;15.00;99.90
10249;DHT22;5169;50.560;9.714;2022-09-09T02:27:35;15.00;99.90
10249;DHT22;5169;50.560;9.714;2022-09-09T02:30:04;15.00;99.90
10249;DHT22;5169;50.560;9.714;2022-09-09T02:32:35;14.90;99.90
10249;DHT22;5169;50.560;9.714;2022-09-09T02:35:08;14.90;99.90
10249;DHT22;5169;50.560;9.714;2022-09-09T02:37:39;15.00;99.90
10249;DHT22;5169;50.560;9.714;2022-09-09T02:40:06;14.90;99.90
10249;DHT22;5169;50.560;9.714;2022-09-09T02:42:44;14.90;99.90
10249;DHT22;5169;50.560;9.714;2022-09-09T02:45:18;14.80;99.90
10249;DHT22;5169;50.560;9.714;2022-09-09T02:47:50;14.80;99.90
10249;DHT22;5169;50.560;9.714;2022-09-09T02:50:26;14.90;99.90
10249;DHT22;5169;50.560;9.714;2022-09-09T02:53:08;14.90;99.90
10249;DHT22;5169;50.560;9.714;2022-09-09T02:55:39;14.80;99.90
10249;DHT22;5169;50.560;9.714;2022-09-09T02:58:11;14.80;99.90
10249;DHT22;5169;50.560;9.714;2022-09-09T03:00:39;14.80;99.90
10249;DHT22;5169;50.560;9.714;2022-09-09T03:03:06;14.80;99.90
10249;DHT22;5169;50.560;9.714;2022-09-09T03:05:32;14.80;99.90
10249;DHT22;5169;50.560;9.714;2022-09-09T03:07:58;14.90;99.90
10249;DHT22;5169;50.560;9.714;2022-09-09T03:10:26;15.00;99.90
10249;DHT22;5169;50.560;9.714;2022-09-09T03:12:52;14.80;99.90
10249;DHT22;5169;50.560;9.714;2022-09-09T03:15:17;14.70;99.90
10249;DHT22;5169;50.560;9.714;2022-09-09T03:17:43;14.70;99.90
10249;DHT22;5169;50.560;9.714;2022-09-09T03:20:09;14.70;99.90
10249;DHT22;5169;50.560;9.714;2022-09-09T03:22:37;14.70;99.90
10249;DHT22;5169;50.560;9.714;2022-09-09T03:25:06;14.70;99.90
10249;DHT22;5169;50.560;9.714;2022-09-09T03:27:32;14.80;99.90
10249;DHT22;5169;50.560;9.714;2022-09-09T03:29:58;14.80;99.90
10249;DHT22;5169;50.560;9.714;2022-09-09T03:32:29;14.80;99.90
10249;DHT22;5169;50.560;9.714;2022-09-09T03:34:54;14.80;99.90
10249;DHT22;5169;50.560;9.714;2022-09-09T03:37:22;14.90;99.90
10249;DHT22;5169;50.560;9.714;2022-09-09T03:39:48;14.90;99.90
10249;DHT22;5169;50.560;9.714;2022-09-09T03:42:15;14.90;99.90
10249;DHT22;5169;50.560;9.714;2022-09-09T03:44:44;14.90;99.90
10249;DHT22;5169;50.560;9.714;2022-09-09T03:47:19;14.90;99.90
10249;DHT22;5169;50.560;9.714;2022-09-09T03:49:49;14.90;99.90
10249;DHT22;5169;50.560;9.714;2022-09-09T03:52:17;14.90;99.90
10249;DHT22;5169;50.560;9.714;2022-09-09T03:54:43;14.80;99.90
10249;DHT22;5169;50.560;9.714;2022-09-09T03:57:11;14.80;99.90
10249;DHT22;5169;50.560;9.714;2022-09-09T03:59:41;14.80;99.90
10249;DHT22;5169;50.560;9.714;2022-09-09T04:02:07;14.90;99.90
10249;DHT22;5169;50.560;9.714;2022-09-09T04:04:32;15.00;99.90
10249;DHT22;5169;50.560;9.714;2022-09-09T04:06:58;15.10;99.90
10249;DHT22;5169;50.560;9.714;2022-09-09T04:09:24;15.10;99.90
10249;DHT22;5169;50.560;9.714;2022-09-09T04:11:52;15.10;99.90
10249;DHT22;5169;50.560;9.714;2022-09-09T04:14:18;15.20;99.90
10249;DHT22;5169;50.560;9.714;2022-09-09T04:16:44;15.10;99.90
10249;DHT22;5169;50.560;9.714;2022-09-09T04:19:11;15.20;99.90
10249;DHT22;5169;50.560;9.714;2022-09-09T04:21:40;15.10;99.90
10249;DHT22;5169;50.560;9.714;2022-09-09T04:24:07;15.20;99.90
10249;DHT22;5169;50.560;9.714;2022-09-09T04:26:33;15.20;99.90
10249;DHT22;5169;50.560;9.714;2022-09-09T04:28:59;15.30;99.90
10249;DHT22;5169;50.560;9.714;2022-09-09T04:31:25;15.20;99.90
10249;DHT22;5169;50.560;9.714;2022-09-09T04:33:51;15.20;99.90
10249;DHT22;5169;50.560;9.714;2022-09-09T04:36:18;15.10;99.90
10249;DHT22;5169;50.560;9.714;2022-09-09T04:38:47;15.00;99.90
10249;DHT22;5169;50.560;9.714;2022-09-09T04:41:15;14.90;99.90
10249;DHT22;5169;50.560;9.714;2022-09-09T04:43:42;14.90;99.90
10249;DHT22;5169;50.560;9.714;2022-09-09T04:46:08;14.90;99.90
10249;DHT22;5169;50.560;9.714;2022-09-09T04:48:34;14.90;99.90
10249;DHT22;5169;50.560;9.714;2022-09-09T04:51:04;14.90;99.90
10249;DHT22;5169;50.560;9.714;2022-09-09T04:53:31;14.80;99.90
10249;DHT22;5169;50.560;9.714;2022-09-09T04:56:04;14.90;99.90
10249;DHT22;5169;50.560;9.714;2022-09-09T04:58:32;15.00;99.90
10249;DHT22;5169;50.560;9.714;2022-09-09T05:01:08;14.90;99.90
10249;DHT22;5169;50.560;9.714;2022-09-09T05:03:34;14.90;99.90
10249;DHT22;5169;50.560;9.714;2022-09-09T05:06:05;14.80;99.90
10249;DHT22;5169;50.560;9.714;2022-09-09T05:08:31;14.70;99.90
10249;DHT22;5169;50.560;9.714;2022-09-09T05:10:57;14.70;99.90
10249;DHT22;5169;50.560;9.714;2022-09-09T05:13:25;14.70;99.90
10249;DHT22;5169;50.560;9.714;2022-09-09T05:15:52;14.70;99.90
10249;DHT22;5169;50.560;9.714;2022-09-09T05:18:18;14.80;99.90
10249;DHT22;5169;50.560;9.714;2022-09-09T05:20:44;14.80;99.90
10249;DHT22;5169;50.560;9.714;2022-09-09T05:23:09;14.80;99.90
10249;DHT22;5169;50.560;9.714;2022-09-09T05:25:41;14.80;99.90
10249;DHT22;5169;50.560;9.714;2022-09-09T05:28:07;14.80;99.90
10249;DHT22;5169;50.560;9.714;2022-09-09T05:30:33;14.80;99.90
10249;DHT22;5169;50.560;9.714;2022-09-09T05:32:59;14.70;99.90
10249;DHT22;5169;50.560;9.714;2022-09-09T05:35:26;14.80;99.90
10249;DHT22;5169;50.560;9.714;2022-09-09T05:37:54;14.90;99.90
10249;DHT22;5169;50.560;9.714;2022-09-09T05:40:24;14.90;99.90
10249;DHT22;5169;50.560;9.714;2022-09-09T05:42:52;15.00;99.90
10249;DHT22;5169;50.560;9.714;2022-09-09T05:45:18;15.00;99.90
10249;DHT22;5169;50.560;9.714;2022-09-09T05:47:51;15.10;99.90
10249;DHT22;5169;50.560;9.714;2022-09-09T05:50:18;15.10;99.90
10249;DHT22;5169;50.560;9.714;2022-09-09T05:52:44;15.20;99.90
10249;DHT22;5169;50.560;9.714;2022-09-09T05:55:10;15.40;99.90
10249;DHT22;5169;50.560;9.714;2022-09-09T05:57:35;15.60;99.90
10249;DHT22;5169;50.560;9.714;2022-09-09T06:00:01;15.70;99.90
10249;DHT22;5169;50.560;9.714;2022-09-09T06:02:28;15.70;99.90
10249;DHT22;5169;50.560;9.714;2022-09-09T06:04:57;15.70;99.90
10249;DHT22;5169;50.560;9.714;2022-09-09T06:07:24;15.80;99.90
10249;DHT22;5169;50.560;9.714;2022-09-09T06:09:50;15.90;99.90
10249;DHT22;5169;50.560;9.714;2022-09-09T06:12:16;15.90;99.90
10249;DHT22;5169;50.560;9.714;2022-09-09T06:14:42;15.90;99.90
10249;DHT22;5169;50.560;9.714;2022-09-09T06:17:11;15.90;99.90
10249;DHT22;5169;50.560;9.714;2022-09-09T06:19:39;15.90;99.90
10249;DHT22;5169;50.560;9.714;2022-09-09T06:22:05;16.10;99.90
10249;DHT22;5169;50.560;9.714;2022-09-09T06:24:30;16.00;99.90
10249;DHT22;5169;50.560;9.714;2022-09-09T06:26:56;15.90;99.90
10249;DHT22;5169;50.560;9.714;2022-09-09T06:29:25;16.00;99.90
10249;DHT22;5169;50.560;9.714;2022-09-09T06:31:50;16.10;99.90
10249;DHT22;5169;50.560;9.714;2022-09-09T06:34:16;16.10;99.90
10249;DHT22;5169;50.560;9.714;2022-09-09T06:36:44;16.10;99.90
10249;DHT22;5169;50.560;9.714;2022-09-09T06:39:11;16.00;99.90
10249;DHT22;5169;50.560;9.714;2022-09-09T06:41:41;16.00;99.90
10249;DHT22;5169;50.560;9.714;2022-09-09T06:44:10;16.10;99.90
10249;DHT22;5169;50.560;9.714;2022-09-09T06:46:40;16.20;99.90
10249;DHT22;5169;50.560;9.714;2022-09-09T06:49:07;16.20;99.90
10249;DHT22;5169;50.560;9.714;2022-09-09T06:51:37;16.20;99.90
10249;DHT22;5169;50.560;9.714;2022-09-09T06:54:08;16.40;99.90
10249;DHT22;5169;50.560;9.714;2022-09-09T06:56:36;16.40;99.90
10249;DHT22;5169;50.560;9.714;2022-09-09T06:59:04;16.50;99.90
10249;DHT22;5169;50.560;9.714;2022-09-09T07:01:38;16.50;99.90
10249;DHT22;5169;50.560;9.714;2022-09-09T07:04:07;16.60;99.90
10249;DHT22;5169;50.560;9.714;2022-09-09T07:06:36;16.70;99.90
10249;DHT22;5169;50.560;9.714;2022-09-09T07:09:08;16.60;99.90
10249;DHT22;5169;50.560;9.714;2022-09-09T07:11:43;16.60;99.90
10249;DHT22;5169;50.560;9.714;2022-09-09T07:14:12;16.60;99.90
10249;DHT22;5169;50.560;9.714;2022-09-09T07:16:40;16.80;99.90
10249;DHT22;5169;50.560;9.714;2022-09-09T07:19:05;16.90;99.90
10249;DHT22;5169;50.560;9.714;2022-09-09T07:21:32;16.90;99.90
10249;DHT22;5169;50.560;9.714;2022-09-09T07:23:58;16.90;99.90
10249;DHT22;5169;50.560;9.714;2022-09-09T07:30:08;17.10;99.90
10249;DHT22;5169;50.560;9.714;2022-09-09T07:32:35;17.00;99.90
10249;DHT22;5169;50.560;9.714;2022-09-09T07:35:05;16.90;99.90
10249;DHT22;5169;50.560;9.714;2022-09-09T07:37:31;17.00;99.90
10249;DHT22;5169;50.560;9.714;2022-09-09T07:39:56;17.20;99.90
10249;DHT22;5169;50.560;9.714;2022-09-09T07:42:22;17.30;99.90
10249;DHT22;5169;50.560;9.714;2022-09-09T07:44:47;17.40;99.90
10249;DHT22;5169;50.560;9.714;2022-09-09T07:47:13;17.40;99.90
10249;DHT22;5169;50.560;9.714;2022-09-09T07:49:39;17.30;99.90
10249;DHT22;5169;50.560;9.714;2022-09-09T07:52:04;17.40;99.90
10249;DHT22;5169;50.560;9.714;2022-09-09T07:54:30;17.20;99.90
10249;DHT22;5169;50.560;9.714;2022-09-09T07:56:58;17.20;99.90
10249;DHT22;5169;50.560;9.714;2022-09-09T07:59:25;17.10;99.90
10249;DHT22;5169;50.560;9.714;2022-09-09T08:01:52;17.10;99.90
10249;DHT22;5169;50.560;9.714;2022-09-09T08:04:21;17.00;99.90
10249;DHT22;5169;50.560;9.714;2022-09-09T08:09:14;16.90;99.90
10249;DHT22;5169;50.560;9.714;2022-09-09T08:11:40;16.90;99.90
10249;DHT22;5169;50.560;9.714;2022-09-09T08:14:10;16.80;99.90
10249;DHT22;5169;50.560;9.714;2022-09-09T08:16:42;16.80;99.90
10249;DHT22;5169;50.560;9.714;2022-09-09T08:19:11;16.80;99.90
10249;DHT22;5169;50.560;9.714;2022-09-09T08:21:39;17.00;99.90
10249;DHT22;5169;50.560;9.714;2022-09-09T08:24:06;17.00;99.90
10249;DHT22;5169;50.560;9.714;2022-09-09T08:26:35;17.10;99.90
10249;DHT22;5169;50.560;9.714;2022-09-09T08:29:02;17.10;99.90
10249;DHT22;5169;50.560;9.714;2022-09-09T08:31:29;17.10;99.90
10249;DHT22;5169;50.560;9.714;2022-09-09T08:33:56;17.10;99.90
10249;DHT22;5169;50.560;9.714;2022-09-09T08:36:24;17.40;99.90
10249;DHT22;5169;50.560;9.714;2022-09-09T08:38:56;17.80;99.90
10249;DHT22;5169;50.560;9.714;2022-09-09T08:50:06;18.30;99.90
10249;DHT22;5169;50.560;9.714;2022-09-09T08:53:05;18.20;99.90
10249;DHT22;5169;50.560;9.714;2022-09-09T09:08:50;18.70;99.90
10249;DHT22;5169;50.560;9.714;2022-09-09T09:11:19;18.80;99.90
10249;DHT22;5169;50.560;9.714;2022-09-09T09:16:40;18.90;99.90
10249;DHT22;5169;50.560;9.714;2022-09-09T09:19:12;19.00;99.90
10249;DHT22;5169;50.560;9.714;2022-09-09T09:21:48;18.90;99.90
10249;DHT22;5169;50.560;9.714;2022-09-09T09:27:31;19.00;99.90
10249;DHT22;5169;50.560;9.714;2022-09-09T09:29:59;19.10;99.90
10249;DHT22;5169;50.560;9.714;2022-09-09T09:32:33;19.10;99.90
10249;DHT22;5169;50.560;9.714;2022-09-09T09:34:59;19.20;99.90
10249;DHT22;5169;50.560;9.714;2022-09-09T09:37:34;19.20;99.90
10249;DHT22;5169;50.560;9.714;2022-09-09T09:40:10;19.50;99.90
10249;DHT22;5169;50.560;9.714;2022-09-09T09:42:37;19.80;99.90
10249;DHT22;5169;50.560;9.714;2022-09-09T09:45:13;19.60;99.90
10249;DHT22;5169;50.560;9.714;2022-09-09T09:47:40;19.40;99.90
10249;DHT22;5169;50.560;9.714;2022-09-09T09:50:17;19.60;99.90
10249;DHT22;5169;50.560;9.714;2022-09-09T09:52:57;19.60;99.90
10249;DHT22;5169;50.560;9.714;2022-09-09T09:55:23;19.50;99.90
10249;DHT22;5169;50.560;9.714;2022-09-09T09:57:50;19.40;99.90
10249;DHT22;5169;50.560;9.714;2022-09-09T10:00:18;19.50;99.90
10249;DHT22;5169;50.560;9.714;2022-09-09T10:02:45;19.80;99.90
10249;DHT22;5169;50.560;9.714;2022-09-09T10:05:17;20.20;99.90
10249;DHT22;5169;50.560;9.714;2022-09-09T10:07:46;20.50;99.90
10249;DHT22;5169;50.560;9.714;2022-09-09T10:10:17;20.70;99.90
10249;DHT22;5169;50.560;9.714;2022-09-09T10:15:31;20.70;99.90
10249;DHT22;5169;50.560;9.714;2022-09-09T10:23:50;20.80;99.90
10249;DHT22;5169;50.560;9.714;2022-09-09T10:29:31;21.20;99.90
10249;DHT22;5169;50.560;9.714;2022-09-09T10:42:47;20.60;99.90
10249;DHT22;5169;50.560;9.714;2022-09-09T10:46:14;20.90;99.90
10249;DHT22;5169;50.560;9.714;2022-09-09T10:51:31;21.50;99.90
10249;DHT22;5169;50.560;9.714;2022-09-09T10:54:14;22.20;99.90
10249;DHT22;5169;50.560;9.714;2022-09-09T10:56:44;22.20;99.90
10249;DHT22;5169;50.560;9.714;2022-09-09T10:59:26;21.80;99.90
10249;DHT22;5169;50.560;9.714;2022-09-09T11:02:16;21.80;99.90
10249;DHT22;5169;50.560;9.714;2022-09-09T11:10:26;21.00;99.90
10249;DHT22;5169;50.560;9.714;2022-09-09T11:13:01;20.80;99.90
10249;DHT22;5169;50.560;9.714;2022-09-09T11:15:49;20.60;99.90
10249;DHT22;5169;50.560;9.714;2022-09-09T11:18:20;20.20;99.90
10249;DHT22;5169;50.560;9.714;2022-09-09T11:20:50;20.10;99.90
10249;DHT22;5169;50.560;9.714;2022-09-09T11:26:05;19.60;99.90
10249;DHT22;5169;50.560;9.714;2022-09-09T11:29:02;19.50;99.90
10249;DHT22;5169;50.560;9.714;2022-09-09T11:42:18;19.80;99.90
10249;DHT22;5169;50.560;9.714;2022-09-09T11:44:44;22.60;99.90
10249;DHT22;5169;50.560;9.714;2022-09-09T11:47:21;24.80;99.40
10249;DHT22;5169;50.560;9.714;2022-09-09T11:49:54;26.70;95.10
10249;DHT22;5169;50.560;9.714;2022-09-09T11:52:34;28.20;91.70
10249;DHT22;5169;50.560;9.714;2022-09-09T11:55:24;29.20;86.60
10249;DHT22;5169;50.560;9.714;2022-09-09T11:57:58;29.90;83.80
10249;DHT22;5169;50.560;9.714;2022-09-09T12:03:03;28.30;81.50
10249;DHT22;5169;50.560;9.714;2022-09-09T12:05:43;27.60;84.70
10249;DHT22;5169;50.560;9.714;2022-09-09T12:08:21;26.50;85.40
10249;DHT22;5169;50.560;9.714;2022-09-09T12:10:55;26.20;87.30
10249;DHT22;5169;50.560;9.714;2022-09-09T12:13:23;25.60;89.60
10249;DHT22;5169;50.560;9.714;2022-09-09T12:15:52;24.90;88.00
10249;DHT22;5169;50.560;9.714;2022-09-09T12:18:38;24.10;90.90
10249;DHT22;5169;50.560;9.714;2022-09-09T12:21:40;23.10;92.70
10249;DHT22;5169;50.560;9.714;2022-09-09T12:24:13;23.20;93.60
10249;DHT22;5169;50.560;9.714;2022-09-09T12:26:51;25.80;90.20
10249;DHT22;5169;50.560;9.714;2022-09-09T12:30:03;27.30;82.70
10249;DHT22;5169;50.560;9.714;2022-09-09T12:32:28;28.70;76.70
10249;DHT22;5169;50.560;9.714;2022-09-09T12:35:00;29.90;74.20
10249;DHT22;5169;50.560;9.714;2022-09-09T12:37:44;29.80;70.90
10249;DHT22;5169;50.560;9.714;2022-09-09T12:40:31;30.80;67.90
10249;DHT22;5169;50.560;9.714;2022-09-09T12:43:01;29.80;66.10
10249;DHT22;5169;50.560;9.714;2022-09-09T12:45:29;29.30;67.70
10249;DHT22;5169;50.560;9.714;2022-09-09T12:48:09;28.80;68.00
10249;DHT22;5169;50.560;9.714;2022-09-09T12:50:43;28.30;68.70
10249;DHT22;5169;50.560;9.714;2022-09-09T12:55:58;26.00;73.80
10249;DHT22;5169;50.560;9.714;2022-09-09T12:58:25;24.80;77.50
10249;DHT22;5169;50.560;9.714;2022-09-09T13:01:02;24.00;81.50
10249;DHT22;5169;50.560;9.714;2022-09-09T13:03:31;22.80;84.10
10249;DHT22;5169;50.560;9.714;2022-09-09T13:06:24;22.20;85.90
10249;DHT22;5169;50.560;9.714;2022-09-09T13:08:53;22.50;84.70
10249;DHT22;5169;50.560;9.714;2022-09-09T13:11:35;22.60;85.00
10249;DHT22;5169;50.560;9.714;2022-09-09T13:14:02;23.10;85.50
10249;DHT22;5169;50.560;9.714;2022-09-09T13:16:33;22.90;85.30
10249;DHT22;5169;50.560;9.714;2022-09-09T13:19:08;22.80;82.10
10249;DHT22;5169;50.560;9.714;2022-09-09T13:21:38;23.00;81.60
10249;DHT22;5169;50.560;9.714;2022-09-09T13:24:33;23.00;82.60
10249;DHT22;5169;50.560;9.714;2022-09-09T13:27:04;22.90;82.40
10249;DHT22;5169;50.560;9.714;2022-09-09T13:29:32;22.90;85.00
10249;DHT22;5169;50.560;9.714;2022-09-09T13:32:16;23.10;86.70
10249;DHT22;5169;50.560;9.714;2022-09-09T13:34:55;23.10;86.90
10249;DHT22;5169;50.560;9.714;2022-09-09T13:37:33;22.90;88.10
10249;DHT22;5169;50.560;9.714;2022-09-09T13:40:00;22.60;89.50
10249;DHT22;5169;50.560;9.714;2022-09-09T13:42:29;22.50;90.50
10249;DHT22;5169;50.560;9.714;2022-09-09T13:44:57;22.50;90.10
10249;DHT22;5169;50.560;9.714;2022-09-09T13:47:43;22.50;90.40
10249;DHT22;5169;50.560;9.714;2022-09-09T13:52:45;21.80;90.50
10249;DHT22;5169;50.560;9.714;2022-09-09T13:55:13;21.60;91.00
10249;DHT22;5169;50.560;9.714;2022-09-09T13:57:38;21.50;91.30
10249;DHT22;5169;50.560;9.714;2022-09-09T14:00:05;21.40;91.90
10249;DHT22;5169;50.560;9.714;2022-09-09T14:02:36;21.40;91.10
10249;DHT22;5169;50.560;9.714;2022-09-09T14:05:04;21.20;91.00
10249;DHT22;5169;50.560;9.714;2022-09-09T14:07:30;21.10;91.80
10249;DHT22;5169;50.560;9.714;2022-09-09T14:09:55;20.90;91.40
10249;DHT22;5169;50.560;9.714;2022-09-09T14:12:25;20.70;92.20
10249;DHT22;5169;50.560;9.714;2022-09-09T14:14:55;20.70;92.70
10249;DHT22;5169;50.560;9.714;2022-09-09T14:17:21;20.60;93.50
10249;DHT22;5169;50.560;9.714;2022-09-09T14:19:47;20.40;93.70
10249;DHT22;5169;50.560;9.714;2022-09-09T14:22:15;20.30;94.20
10249;DHT22;5169;50.560;9.714;2022-09-09T14:24:41;20.30;93.80
10249;DHT22;5169;50.560;9.714;2022-09-09T14:27:07;20.30;94.00
10249;DHT22;5169;50.560;9.714;2022-09-09T14:29:32;20.30;93.90
10249;DHT22;5169;50.560;9.714;2022-09-09T14:31:58;20.30;94.30
10249;DHT22;5169;50.560;9.714;2022-09-09T14:34:27;20.30;94.70
10249;DHT22;5169;50.560;9.714;2022-09-09T14:36:55;20.40;94.90
10249;DHT22;5169;50.560;9.714;2022-09-09T14:39:21;20.40;95.30
10249;DHT22;5169;50.560;9.714;2022-09-09T14:41:46;20.20;94.60
10249;DHT22;5169;50.560;9.714;2022-09-09T14:44:12;20.10;95.30
10249;DHT22;5169;50.560;9.714;2022-09-09T14:46:38;20.00;95.40
10249;DHT22;5169;50.560;9.714;2022-09-09T14:49:03;20.00;95.60
10249;DHT22;5169;50.560;9.714;2022-09-09T14:51:30;20.00;96.60
10249;DHT22;5169;50.560;9.714;2022-09-09T14:53:57;19.80;96.90
10249;DHT22;5169;50.560;9.714;2022-09-09T14:56:29;19.80;97.60
10249;DHT22;5169;50.560;9.714;2022-09-09T14:58:58;19.70;98.40
10249;DHT22;5169;50.560;9.714;2022-09-09T15:01:27;19.60;99.00
10249;DHT22;5169;50.560;9.714;2022-09-09T15:03:57;19.80;99.10
10249;DHT22;5169;50.560;9.714;2022-09-09T15:06:28;19.80;98.40
10249;DHT22;5169;50.560;9.714;2022-09-09T15:08:55;19.80;98.90
10249;DHT22;5169;50.560;9.714;2022-09-09T15:11:27;19.70;98.30
10249;DHT22;5169;50.560;9.714;2022-09-09T15:13:53;19.70;98.80
10249;DHT22;5169;50.560;9.714;2022-09-09T15:16:21;19.50;98.90
10249;DHT22;5169;50.560;9.714;2022-09-09T15:18:51;19.50;99.10
10249;DHT22;5169;50.560;9.714;2022-09-09T15:21:19;19.40;99.70
10249;DHT22;5169;50.560;9.714;2022-09-09T15:23:45;19.40;99.90
10249;DHT22;5169;50.560;9.714;2022-09-09T15:26:12;19.50;99.90
10249;DHT22;5169;50.560;9.714;2022-09-09T15:28:44;19.70;99.80
10249;DHT22;5169;50.560;9.714;2022-09-09T15:31:25;19.90;99.30
10249;DHT22;5169;50.560;9.714;2022-09-09T15:33:59;20.00;99.00
10249;DHT22;5169;50.560;9.714;2022-09-09T15:36:39;20.10;99.10
10249;DHT22;5169;50.560;9.714;2022-09-09T15:39:09;19.90;98.20
10249;DHT22;5169;50.560;9.714;2022-09-09T15:41:38;19.80;98.50
10249;DHT22;5169;50.560;9.714;2022-09-09T15:44:05;19.80;99.20
10249;DHT22;5169;50.560;9.714;2022-09-09T15:49:22;19.70;98.70
10249;DHT22;5169;50.560;9.714;2022-09-09T15:51:58;19.60;98.50
10249;DHT22;5169;50.560;9.714;2022-09-09T15:54:34;19.60;98.20
10249;DHT22;5169;50.560;9.714;2022-09-09T15:57:06;19.60;98.30
10249;DHT22;5169;50.560;9.714;2022-09-09T15:59:34;19.60;98.50
10249;DHT22;5169;50.560;9.714;2022-09-09T16:02:00;19.60;98.30
10249;DHT22;5169;50.560;9.714;2022-09-09T16:04:27;19.70;98.10
10249;DHT22;5169;50.560;9.714;2022-09-09T16:07:03;19.60;98.20
10249;DHT22;5169;50.560;9.714;2022-09-09T16:09:32;19.50;98.10
10249;DHT22;5169;50.560;9.714;2022-09-09T16:11:59;19.30;98.40
10249;DHT22;5169;50.560;9.714;2022-09-09T16:14:31;19.20;99.00
10249;DHT22;5169;50.560;9.714;2022-09-09T16:17:02;19.20;99.20
10249;DHT22;5169;50.560;9.714;2022-09-09T16:19:28;19.10;99.50
10249;DHT22;5169;50.560;9.714;2022-09-09T16:21:56;19.00;99.70
10249;DHT22;5169;50.560;9.714;2022-09-09T16:24:22;19.00;99.90
10249;DHT22;5169;50.560;9.714;2022-09-09T16:26:51;18.90;99.90
10249;DHT22;5169;50.560;9.714;2022-09-09T16:29:20;18.80;99.90
10249;DHT22;5169;50.560;9.714;2022-09-09T16:31:49;18.90;99.90
10249;DHT22;5169;50.560;9.714;2022-09-09T16:34:16;18.90;99.90
10249;DHT22;5169;50.560;9.714;2022-09-09T16:36:43;18.90;99.90
10249;DHT22;5169;50.560;9.714;2022-09-09T16:39:19;18.80;99.90
10249;DHT22;5169;50.560;9.714;2022-09-09T16:41:46;18.70;99.90
10249;DHT22;5169;50.560;9.714;2022-09-09T16:44:14;18.60;99.90
10249;DHT22;5169;50.560;9.714;2022-09-09T16:46:45;18.60;99.90
10249;DHT22;5169;50.560;9.714;2022-09-09T16:49:17;18.50;99.90
10249;DHT22;5169;50.560;9.714;2022-09-09T16:51:45;18.50;99.90
10249;DHT22;5169;50.560;9.714;2022-09-09T16:54:16;18.50;99.90
10249;DHT22;5169;50.560;9.714;2022-09-09T16:56:44;18.50;99.90
10249;DHT22;5169;50.560;9.714;2022-09-09T16:59:15;18.50;99.90
10249;DHT22;5169;50.560;9.714;2022-09-09T17:01:46;18.50;99.90
10249;DHT22;5169;50.560;9.714;2022-09-09T17:04:14;18.50;99.90
10249;DHT22;5169;50.560;9.714;2022-09-09T17:06:41;18.50;99.90
10249;DHT22;5169;50.560;9.714;2022-09-09T17:09:15;18.50;99.90
10249;DHT22;5169;50.560;9.714;2022-09-09T17:11:41;18.40;99.90
10249;DHT22;5169;50.560;9.714;2022-09-09T17:14:10;18.40;99.90
10249;DHT22;5169;50.560;9.714;2022-09-09T17:16:39;18.30;99.90
10249;DHT22;5169;50.560;9.714;2022-09-09T17:19:06;18.10;99.90
10249;DHT22;5169;50.560;9.714;2022-09-09T17:21:34;18.10;99.90
10249;DHT22;5169;50.560;9.714;2022-09-09T17:24:02;18.10;99.90
10249;DHT22;5169;50.560;9.714;2022-09-09T17:26:30;18.00;99.90
10249;DHT22;5169;50.560;9.714;2022-09-09T17:28:57;18.00;99.90
10249;DHT22;5169;50.560;9.714;2022-09-09T17:31:26;17.90;99.90
10249;DHT22;5169;50.560;9.714;2022-09-09T17:33:55;17.90;99.90
10249;DHT22;5169;50.560;9.714;2022-09-09T17:36:26;17.90;99.90
10249;DHT22;5169;50.560;9.714;2022-09-09T17:38:52;18.00;99.90
10249;DHT22;5169;50.560;9.714;2022-09-09T17:41:21;17.90;99.90
10249;DHT22;5169;50.560;9.714;2022-09-09T17:43:48;17.80;99.90
10249;DHT22;5169;50.560;9.714;2022-09-09T17:46:20;17.90;99.90
10249;DHT22;5169;50.560;9.714;2022-09-09T17:48:47;17.80;99.90
10249;DHT22;5169;50.560;9.714;2022-09-09T17:51:19;17.80;99.90
10249;DHT22;5169;50.560;9.714;2022-09-09T17:53:49;17.70;99.90
10249;DHT22;5169;50.560;9.714;2022-09-09T17:56:17;17.80;99.90
10249;DHT22;5169;50.560;9.714;2022-09-09T17:58:47;17.70;99.90
10249;DHT22;5169;50.560;9.714;2022-09-09T18:03:46;17.50;99.90
10249;DHT22;5169;50.560;9.714;2022-09-09T18:06:21;17.50;99.90
10249;DHT22;5169;50.560;9.714;2022-09-09T18:08:54;17.60;99.90
10249;DHT22;5169;50.560;9.714;2022-09-09T18:11:21;17.50;99.90